Time;durP1;ratioP1;P1;durP2;ratioP2;P2;SDS_P1;SDS_P2;PMS_P1;PMS_P2;Temp;Humidity;BMP_temperature;BMP_pressure;BME280_temperature;BME280_humidity;BME280_pressure;Samples;Min_cycle;Max_cycle;Signal;HPM_P1;HPM_P2
2022/05/29 00:01:10;;;;;;;22.25;9.75;;;;;;;18.58;77.70;94616.56;5011325;28;20054;-79
2022/05/29 00:03:35;;;;;;;20.95;9.48;;;;;;;18.57;77.44;94613.13;4992826;28;20037;-80
2022/05/29 00:06:01;;;;;;;20.98;9.57;;;;;;;18.49;77.42;94576.91;4993457;28;20042;-80
2022/05/29 00:08:27;;;;;;;19.05;10.45;;;;;;;18.16;79.17;94551.59;4993802;28;20034;-79
2022/05/29 00:10:53;;;;;;;28.95;10.95;;;;;;;17.73;81.35;94551.63;5015541;23;20048;-79
2022/05/29 00:13:19;;;;;;;28.15;9.88;;;;;;;17.59;82.33;94562.06;5039720;28;20033;-79
2022/05/29 00:15:45;;;;;;;23.27;10.23;;;;;;;17.59;82.74;94569.94;5037856;28;20037;-79
2022/05/29 00:18:11;;;;;;;25.05;10.52;;;;;;;17.65;82.29;94573.28;5082007;23;20047;-78
2022/05/29 00:20:36;;;;;;;22.67;9.95;;;;;;;17.79;82.08;94573.41;5024009;28;20033;-78
2022/05/29 00:23:02;;;;;;;25.80;10.15;;;;;;;17.88;81.56;94566.44;5019491;28;20048;-79
2022/05/29 00:25:27;;;;;;;32.15;10.52;;;;;;;18.02;80.96;94566.53;5030166;23;20208;-79
2022/05/29 00:27:53;;;;;;;35.78;9.27;;;;;;;18.06;80.36;94552.53;5019833;28;20044;-81
2022/05/29 00:30:18;;;;;;;22.58;9.90;;;;;;;18.08;80.45;94544.38;5017223;28;20100;-81
2022/05/29 00:32:44;;;;;;;33.70;10.60;;;;;;;18.02;80.22;94529.69;5019409;28;20506;-80
2022/05/29 00:35:09;;;;;;;31.45;9.82;;;;;;;17.99;80.76;94526.56;5012285;28;20057;-80
2022/05/29 00:37:44;;;;;;;23.30;9.98;;;;;;;18.10;80.23;94521.97;5097124;22;20061;-79
2022/05/29 00:40:23;;;;;;;21.88;9.40;;;;;;;18.04;79.61;94514.41;5021265;28;20708;-79
2022/05/29 00:42:49;;;;;;;25.70;10.50;;;;;;;18.02;79.65;94503.38;5024306;28;20061;-79
2022/05/29 00:45:17;;;;;;;31.95;10.75;;;;;;;18.13;78.87;94475.88;5001839;28;20495;-79
2022/05/29 00:47:43;;;;;;;24.48;10.05;;;;;;;18.14;78.86;94440.59;5010762;28;20065;-81
2022/05/29 00:50:08;;;;;;;32.63;9.50;;;;;;;18.03;79.73;94436.53;5011751;28;20045;-81
2022/05/29 00:52:34;;;;;;;29.73;9.32;;;;;;;18.03;79.95;94494.44;5008712;28;20037;-80
2022/05/29 00:55:26;;;;;;;31.23;10.70;;;;;;;18.12;79.99;94543.50;5013156;28;20046;-82
2022/05/29 00:57:59;;;;;;;22.25;10.40;;;;;;;18.18;79.83;94536.31;5007119;28;20572;-79
2022/05/29 01:00:26;;;;;;;33.65;10.68;;;;;;;18.04;79.44;94485.47;5007868;28;20080;-80
2022/05/29 01:02:53;;;;;;;25.08;12.38;;;;;;;17.85;80.52;94472.31;5003033;28;20033;-78
2022/05/29 01:05:22;;;;;;;25.17;11.80;;;;;;;17.70;80.72;94478.56;4994342;28;20053;-80
2022/05/29 01:07:56;;;;;;;31.10;12.20;;;;;;;17.59;81.09;94477.16;5155902;22;20024;-80
2022/05/29 01:10:22;;;;;;;24.92;11.13;;;;;;;17.51;82.27;94454.88;5019706;28;20116;-79
2022/05/29 01:15:18;;;;;;;33.38;11.95;;;;;;;17.59;81.97;94500.81;5093395;23;20060;-82
2022/05/29 01:18:05;;;;;;;30.77;11.65;;;;;;;17.65;81.69;94491.78;5090980;22;20041;-80
2022/05/29 01:20:45;;;;;;;30.35;12.50;;;;;;;17.59;81.44;94453.47;5009533;28;20049;-79
2022/05/29 01:23:16;;;;;;;29.35;11.05;;;;;;;17.63;81.90;94480.75;5003171;28;20069;-80
2022/05/29 01:25:59;;;;;;;24.25;11.07;;;;;;;17.75;82.16;94496.94;4993139;28;20038;-79
2022/05/29 01:31:23;;;;;;;31.13;10.80;;;;;;;17.64;81.00;94471.81;5094822;23;20057;-81
2022/05/29 01:34:02;;;;;;;26.02;10.70;;;;;;;17.54;80.95;94456.94;5046978;28;20033;-80
2022/05/29 01:36:39;;;;;;;20.75;10.35;;;;;;;17.61;80.11;94453.97;5074265;28;20036;-80
2022/05/29 01:39:09;;;;;;;24.98;9.65;;;;;;;17.62;79.63;94458.94;5071355;28;20029;-80
2022/05/29 01:41:39;;;;;;;27.33;9.70;;;;;;;17.65;78.88;94452.34;5054967;28;20051;-78
2022/05/29 01:44:22;;;;;;;21.42;8.80;;;;;;;17.76;78.62;94456.41;5032689;28;20528;-78
2022/05/29 01:46:49;;;;;;;;;;;;;;;17.77;78.18;94465.88;5050563;28;20025;-77
2022/05/29 01:49:40;;;;;;;24.70;9.15;;;;;;;17.85;77.90;94462.59;5057283;28;19916;-78
2022/05/29 01:52:12;;;;;;;23.88;8.68;;;;;;;17.93;77.58;94453.28;5050914;28;20049;-79
2022/05/29 01:54:41;;;;;;;20.23;8.05;;;;;;;18.06;77.65;94457.81;5051004;28;20040;-79
2022/05/29 01:57:19;;;;;;;15.38;8.60;;;;;;;18.14;77.08;94453.75;5018266;23;20050;-78
2022/05/29 01:59:48;;;;;;;23.45;9.55;;;;;;;18.23;77.66;94452.81;4982280;28;20058;-77
2022/05/29 02:02:17;;;;;;;24.63;9.75;;;;;;;18.30;77.35;94452.44;5009346;28;20037;-78
2022/05/29 02:04:46;;;;;;;22.17;10.05;;;;;;;18.32;77.44;94439.75;5001991;28;20038;-79
2022/05/29 02:10:23;;;;;;;22.15;8.88;;;;;;;18.36;77.61;94424.94;4999566;28;20097;-79
2022/05/29 02:13:17;;;;;;;25.05;8.68;;;;;;;18.38;76.66;94420.16;5003106;28;20043;-78
2022/05/29 02:15:50;;;;;;;23.02;8.70;;;;;;;18.38;76.24;94428.06;5001593;28;20046;-78
2022/05/29 02:18:23;;;;;;;30.95;8.65;;;;;;;18.40;75.54;94425.94;5028276;23;20042;-78
2022/05/29 02:23:38;;;;;;;32.22;14.35;;;;;;;18.23;76.31;94415.19;5056923;22;20140;-78
2022/05/29 02:26:04;;;;;;;25.48;11.98;;;;;;;18.13;75.73;94415.34;5046191;23;20038;-78
2022/05/29 02:28:36;;;;;;;22.15;11.07;;;;;;;18.06;75.60;94414.91;5066103;28;20043;-81
2022/05/29 02:31:14;;;;;;;16.55;8.13;;;;;;;17.98;74.36;94401.38;5049748;28;20037;-78
2022/05/29 02:33:58;;;;;;;23.77;8.77;;;;;;;17.99;74.83;94405.56;5109587;23;20525;-79
2022/05/29 02:37:01;;;;;;;14.57;6.47;;;;;;;17.85;74.16;94406.56;5101308;22;20034;-77
2022/05/29 02:39:26;;;;;;;;;;;;;;;17.81;74.07;94397.69;4971730;28;20050;-78
2022/05/29 02:41:58;;;;;;;22.23;6.55;;;;;;;17.86;74.34;94400.25;5074112;23;19924;-80
2022/05/29 02:44:51;;;;;;;18.75;6.63;;;;;;;17.92;73.98;94404.38;5052295;28;20064;-78
2022/05/29 02:47:46;;;;;;;14.38;6.72;;;;;;;17.99;73.87;94410.81;5027038;28;20073;-77
2022/05/29 02:50:26;;;;;;;20.35;6.63;;;;;;;17.96;73.32;94379.81;5025036;28;20046;-77
2022/05/29 02:52:52;;;;;;;17.92;5.55;;;;;;;17.97;72.24;94384.03;5127336;23;20073;-79
2022/05/29 02:55:19;;;;;;;26.08;5.95;;;;;;;17.87;71.37;94392.06;5010263;28;20042;-78
2022/05/29 02:57:45;;;;;;;20.05;5.65;;;;;;;17.71;72.27;94382.84;5010675;28;20056;-78
2022/05/29 03:00:12;;;;;;;15.50;5.15;;;;;;;17.54;72.05;94387.81;4993003;28;20034;-79
2022/05/29 03:02:49;;;;;;;16.17;5.97;;;;;;;17.48;73.31;94373.97;5559934;22;20054;-79
2022/05/29 03:05:34;;;;;;;16.10;5.78;;;;;;;17.47;73.26;94371.63;5038988;23;20041;-80
2022/05/29 03:08:25;;;;;;;14.20;5.93;;;;;;;17.42;74.14;94364.59;5049782;28;20609;-80
2022/05/29 03:10:54;;;;;;;17.30;6.45;;;;;;;17.49;73.97;94358.97;5030686;28;20025;-79
2022/05/29 03:13:48;;;;;;;24.42;7.00;;;;;;;17.56;74.15;94357.53;5031510;28;20071;-79
2022/05/29 03:16:33;;;;;;;21.92;6.30;;;;;;;17.61;74.63;94356.69;5027629;28;20067;-78
2022/05/29 03:19:13;;;;;;;26.02;7.97;;;;;;;17.73;75.07;94351.00;5032526;28;20030;-78
2022/05/29 03:21:57;;;;;;;21.63;8.20;;;;;;;17.72;75.80;94352.06;5031468;28;20038;-79
2022/05/29 03:24:33;;;;;;;20.27;7.53;;;;;;;17.67;76.29;94339.75;5036859;28;20038;-78
2022/05/29 03:27:39;;;;;;;23.13;8.88;;;;;;;17.50;76.53;94352.66;5044507;28;20045;-77
2022/05/29 03:30:12;;;;;;;18.27;7.88;;;;;;;17.45;77.09;94358.75;5030966;28;20095;-79
2022/05/29 03:32:37;;;;;;;21.77;7.90;;;;;;;17.57;77.05;94353.84;5030737;28;20037;-79
2022/05/29 03:35:16;;;;;;;19.15;7.75;;;;;;;17.66;76.23;94344.25;5030509;28;20468;-79
2022/05/29 03:37:42;;;;;;;22.20;7.72;;;;;;;17.74;75.40;94339.44;5202864;23;20045;-78
2022/05/29 03:40:08;;;;;;;21.80;7.45;;;;;;;17.67;75.70;94340.53;5054917;28;20523;-79
2022/05/29 03:42:33;;;;;;;18.00;7.53;;;;;;;17.72;75.71;94347.59;5035785;28;20077;-79
2022/05/29 03:44:59;;;;;;;16.60;7.30;;;;;;;17.86;74.87;94337.91;5014963;28;20679;-79
2022/05/29 03:47:24;;;;;;;15.57;7.40;;;;;;;18.04;74.63;94338.13;5030937;28;20038;-79
2022/05/29 03:49:50;;;;;;;19.33;6.70;;;;;;;18.19;73.10;94335.22;5029990;28;20049;-79
2022/05/29 03:52:15;;;;;;;17.25;6.65;;;;;;;18.43;71.89;94335.84;5013555;28;20037;-79
2022/05/29 03:54:41;;;;;;;13.52;6.10;;;;;;;18.54;71.18;94329.31;5030368;28;20037;-78
2022/05/29 03:57:06;;;;;;;14.07;5.30;;;;;;;18.77;69.38;94337.34;5027826;28;20030;-79
2022/05/29 04:02:01;;;;;;;23.35;7.22;;;;;;;19.04;68.48;94324.13;5102843;23;20081;-79
2022/05/29 04:04:26;;;;;;;15.75;6.35;;;;;;;19.16;67.65;94329.66;5032497;28;20480;-80
2022/05/29 04:06:52;;;;;;;15.20;6.00;;;;;;;19.30;67.49;94326.19;5046003;23;20041;-79
2022/05/29 04:12:04;;;;;;;16.05;6.43;;;;;;;19.48;66.62;94323.41;5041239;28;20047;-80
2022/05/29 04:14:37;;;;;;;26.73;6.95;;;;;;;19.66;65.17;94326.97;5019125;28;20697;-79
2022/05/29 04:17:03;;;;;;;13.25;5.88;;;;;;;19.59;65.28;94317.94;5031033;28;20057;-78
2022/05/29 04:19:28;;;;;;;17.90;6.32;;;;;;;20.00;64.11;94318.47;5027978;28;20107;-78
2022/05/29 04:21:54;;;;;;;9.82;5.60;;;;;;;20.83;61.77;94323.97;5010242;28;20029;-78
2022/05/29 04:24:20;;;;;;;18.98;5.35;;;;;;;21.14;59.90;94328.34;5035833;28;20468;-78
2022/05/29 04:26:47;;;;;;;16.10;5.22;;;;;;;21.34;59.39;94322.53;5034240;28;20100;-79
2022/05/29 04:29:12;;;;;;;14.30;5.43;;;;;;;21.99;56.80;94321.53;5029683;28;20025;-79
2022/05/29 04:31:38;;;;;;;13.93;5.40;;;;;;;23.73;52.18;94327.50;5031125;28;20065;-79
2022/05/29 04:34:03;;;;;;;22.48;5.22;;;;;;;25.43;47.78;94326.88;5029956;28;20127;-79
2022/05/29 04:36:29;;;;;;;12.23;5.70;;;;;;;27.01;44.68;94326.38;5011235;28;20041;-78
2022/05/29 04:38:55;;;;;;;13.68;4.85;;;;;;;28.24;41.19;94327.38;5078908;23;20517;-79
2022/05/29 04:41:25;;;;;;;10.35;4.20;;;;;;;29.17;39.67;94324.31;5024990;28;20026;-79
2022/05/29 04:43:53;;;;;;;11.57;4.68;;;;;;;30.43;37.48;94333.50;5006343;28;20048;-78
2022/05/29 04:46:18;;;;;;;15.43;3.65;;;;;;;31.35;36.05;94327.31;5005584;28;20053;-80
2022/05/29 04:48:44;;;;;;;11.82;4.60;;;;;;;31.82;34.94;94339.84;5024509;23;20101;-79
2022/05/29 04:51:10;;;;;;;13.35;5.05;;;;;;;31.49;35.36;94338.13;5025525;28;20560;-79
2022/05/29 04:53:36;;;;;;;16.83;5.28;;;;;;;31.82;34.83;94329.09;5008814;28;20042;-79
2022/05/29 04:56:02;;;;;;;13.25;4.32;;;;;;;31.69;33.46;94329.78;5007628;28;20979;-79
2022/05/29 04:58:28;;;;;;;11.13;4.88;;;;;;;32.44;32.76;94328.13;5006441;28;20050;-79
2022/05/29 05:00:57;;;;;;;12.13;4.78;;;;;;;32.83;31.26;94317.41;5007515;28;20089;-78
2022/05/29 05:03:23;;;;;;;26.20;3.72;;;;;;;33.25;30.07;94318.50;5028894;28;20034;-79
2022/05/29 05:05:49;;;;;;;14.82;4.20;;;;;;;32.82;29.68;94330.09;5006224;28;20110;-78
2022/05/29 05:08:14;;;;;;;12.50;3.42;;;;;;;32.88;29.64;94321.66;5005136;28;20042;-78
2022/05/29 05:10:41;;;;;;;11.18;3.85;;;;;;;32.64;29.95;94323.91;5022385;28;20033;-79
2022/05/29 05:13:08;;;;;;;12.55;3.80;;;;;;;32.24;30.93;94325.75;5019371;28;20031;-80
2022/05/29 05:15:34;;;;;;;23.10;4.00;;;;;;;31.64;31.65;94317.47;4987170;28;20042;-79
2022/05/29 05:17:59;;;;;;;11.75;4.15;;;;;;;30.89;33.51;94322.38;5006294;28;20069;-78
2022/05/29 05:20:25;;;;;;;16.33;3.60;;;;;;;30.19;33.23;94325.97;5007903;28;20040;-79
2022/05/29 05:22:51;;;;;;;16.77;4.03;;;;;;;29.37;35.35;94322.28;5003965;28;20037;-79
2022/05/29 05:25:17;;;;;;;10.68;3.92;;;;;;;28.93;36.44;94319.38;5005165;28;20034;-79
2022/05/29 05:27:49;;;;;;;15.63;4.28;;;;;;;28.79;35.86;94314.53;4989019;28;20041;-79
2022/05/29 05:30:14;;;;;;;19.60;4.38;;;;;;;28.16;37.23;94309.66;5020353;23;20047;-79
2022/05/29 05:32:39;;;;;;;17.10;5.10;;;;;;;27.57;38.44;94320.72;4970652;28;20058;-79
2022/05/29 05:35:07;;;;;;;18.80;4.15;;;;;;;27.09;38.53;94317.44;4968894;28;20043;-79
2022/05/29 05:37:35;;;;;;;11.05;3.70;;;;;;;26.31;40.48;94324.31;4975499;28;20051;-80
2022/05/29 05:40:04;;;;;;;26.45;4.35;;;;;;;26.65;40.72;94320.22;4965534;28;20052;-79
2022/05/29 05:42:30;;;;;;;10.38;3.85;;;;;;;26.89;39.61;94320.03;4967721;28;20034;-81
2022/05/29 05:44:56;;;;;;;25.67;4.35;;;;;;;27.03;39.85;94319.59;4958947;28;20075;-79
2022/05/29 05:47:22;;;;;;;13.98;3.42;;;;;;;27.46;39.00;94321.28;4982603;28;20038;-80
2022/05/29 05:49:49;;;;;;;15.73;3.88;;;;;;;27.90;38.39;94322.94;4986376;28;20074;-80
2022/05/29 05:52:14;;;;;;;11.30;3.35;;;;;;;28.73;36.29;94321.34;4977501;28;20031;-81
2022/05/29 05:54:40;;;;;;;14.57;3.22;;;;;;;29.13;35.87;94318.16;4957632;28;20122;-81
2022/05/29 05:57:06;;;;;;;11.75;3.63;;;;;;;28.52;37.03;94315.66;4970546;28;20054;-81
2022/05/29 05:59:32;;;;;;;13.68;4.10;;;;;;;28.50;36.71;94302.63;4953979;28;20513;-80
2022/05/29 06:01:58;;;;;;;8.30;3.45;;;;;;;28.58;36.31;94309.63;4993052;28;20034;-80
2022/05/29 06:04:24;;;;;;;25.63;4.10;;;;;;;29.40;35.49;94310.06;4970856;28;20045;-81
2022/05/29 06:06:49;;;;;;;10.15;3.17;;;;;;;30.26;33.70;94320.66;4936986;28;20031;-79
2022/05/29 06:09:17;;;;;;;11.40;3.25;;;;;;;31.82;30.84;94322.94;4953479;28;20070;-80
2022/05/29 06:11:42;;;;;;;18.67;4.13;;;;;;;33.01;29.06;94312.00;4970804;28;20031;-81
2022/05/29 06:14:08;;;;;;;14.93;3.88;;;;;;;33.83;27.97;94314.47;4976414;28;20062;-80
2022/05/29 06:16:34;;;;;;;18.48;3.75;;;;;;;35.36;25.89;94313.47;4976021;28;20035;-83
2022/05/29 06:18:59;;;;;;;11.27;3.78;;;;;;;36.51;25.02;94302.75;4974905;28;20039;-81
2022/05/29 06:21:25;;;;;;;15.55;3.55;;;;;;;37.47;23.50;94287.63;4970979;28;20037;-82
2022/05/29 06:23:50;;;;;;;14.80;3.28;;;;;;;37.02;23.05;94295.38;4971637;28;20031;-80
2022/05/29 06:26:16;;;;;;;9.77;3.28;;;;;;;35.30;25.80;94304.22;4959915;28;20046;-80
2022/05/29 06:28:41;;;;;;;13.77;4.45;;;;;;;33.79;27.44;94301.00;4976487;28;20272;-82
2022/05/29 06:31:10;;;;;;;8.02;2.90;;;;;;;33.57;27.57;94278.00;4972948;28;20046;-82
2022/05/29 06:33:36;;;;;;;11.55;3.70;;;;;;;34.41;26.12;94270.63;4974268;28;20043;-81
2022/05/29 06:36:13;;;;;;;13.23;3.58;;;;;;;34.29;26.75;94262.97;4952177;28;20039;-78
2022/05/29 06:38:39;;;;;;;17.00;3.65;;;;;;;33.50;27.54;94259.16;4954710;28;20026;-82
2022/05/29 06:41:09;;;;;;;13.52;3.72;;;;;;;33.29;27.84;94260.75;4967398;28;20027;-82
2022/05/29 06:43:34;;;;;;;12.18;3.75;;;;;;;33.51;26.84;94252.59;4950914;28;20035;-83
2022/05/29 06:46:00;;;;;;;19.95;3.80;;;;;;;33.17;26.88;94269.25;4977428;28;20051;-79
2022/05/29 06:48:26;;;;;;;20.75;2.95;;;;;;;31.12;30.32;94270.38;4970072;28;20038;-81
2022/05/29 06:50:51;;;;;;;15.73;3.15;;;;;;;30.76;30.56;94267.47;4969290;28;20530;-80
2022/05/29 06:53:16;;;;;;;10.23;3.28;;;;;;;31.38;29.95;94259.38;4977715;28;20027;-79
2022/05/29 06:55:53;;;;;;;14.35;3.45;;;;;;;31.86;28.87;94261.88;4981215;28;20032;-79
2022/05/29 06:58:18;;;;;;;11.20;3.10;;;;;;;31.96;29.34;94263.84;4948586;28;20192;-76
2022/05/29 07:08:55;;;;;;;16.77;3.58;;;;;;;29.29;33.93;94267.88;4963118;28;20486;-78
2022/05/29 07:11:23;;;;;;;16.40;3.47;;;;;;;28.69;35.54;94248.28;4951546;28;20035;-79
2022/05/29 07:13:49;;;;;;;22.50;3.45;;;;;;;28.64;37.45;94244.00;4963856;28;20027;-77
2022/05/29 07:16:17;;;;;;;15.55;3.55;;;;;;;28.68;35.53;94238.69;4965673;28;20038;-79
2022/05/29 07:18:43;;;;;;;16.42;3.53;;;;;;;28.08;35.81;94241.94;4964340;28;20039;-80
2022/05/29 07:21:08;;;;;;;12.63;3.40;;;;;;;27.72;36.96;94232.53;4972142;28;20094;-76
2022/05/29 07:26:03;;;;;;;17.67;3.58;;;;;;;27.76;37.78;94236.03;5022419;23;20425;-76
2022/05/29 07:28:28;;;;;;;13.35;3.42;;;;;;;26.96;37.68;94239.34;5010217;28;20060;-75
2022/05/29 07:30:57;;;;;;;10.85;3.00;;;;;;;27.05;38.61;94260.53;5011661;28;20033;-77
2022/05/29 07:33:23;;;;;;;19.73;5.72;;;;;;;27.14;39.27;94251.19;4993676;28;20390;-77
2022/05/29 07:35:48;;;;;;;12.10;3.13;;;;;;;27.41;37.68;94244.13;4976962;28;20034;-75
2022/05/29 07:38:14;;;;;;;10.30;3.90;;;;;;;27.57;37.86;94238.69;4993544;28;20492;-77
2022/05/29 07:40:39;;;;;;;16.50;3.53;;;;;;;27.76;37.91;94232.59;5012676;28;20030;-77
2022/05/29 07:43:20;;;;;;;8.52;3.20;;;;;;;27.68;36.37;94236.25;4962245;28;20030;-76
2022/05/29 07:45:46;;;;;;;17.13;3.58;;;;;;;27.14;37.22;94235.19;4980548;28;20120;-77
2022/05/29 07:51:00;;;;;;;13.52;3.47;;;;;;;26.83;38.79;94241.34;5496792;23;20050;-76
2022/05/29 07:53:25;;;;;;;16.60;3.70;;;;;;;26.61;38.88;94250.78;5010297;28;20034;-77
2022/05/29 07:55:51;;;;;;;21.40;3.65;;;;;;;26.61;38.76;94240.13;5009995;28;20037;-76
2022/05/29 07:58:17;;;;;;;10.23;3.33;;;;;;;26.23;39.36;94243.41;5010735;28;20037;-76
2022/05/29 08:00:42;;;;;;;12.98;2.97;;;;;;;26.12;39.75;94236.25;4992447;28;20034;-77
2022/05/29 08:03:08;;;;;;;18.92;3.97;;;;;;;26.05;40.05;94236.09;4992233;28;20038;-76
2022/05/29 08:05:35;;;;;;;13.20;3.38;;;;;;;26.17;40.00;94239.44;5025016;28;20184;-76
2022/05/29 08:08:04;;;;;;;13.50;3.47;;;;;;;25.85;40.90;94243.19;5008316;28;20107;-76
2022/05/29 08:10:31;;;;;;;16.05;3.65;;;;;;;25.68;40.80;94246.94;5008137;28;20044;-78
2022/05/29 08:12:56;;;;;;;20.75;4.50;;;;;;;25.70;41.45;94232.16;5009602;28;20022;-79
2022/05/29 08:15:22;;;;;;;14.55;3.90;;;;;;;25.94;41.10;94215.28;5009329;28;20057;-76
2022/05/29 08:17:47;;;;;;;24.33;4.05;;;;;;;25.93;41.04;94216.41;4993032;28;20417;-78
2022/05/29 08:20:14;;;;;;;9.13;3.13;;;;;;;25.91;41.68;94207.22;5007701;28;20030;-74
2022/05/29 08:22:40;;;;;;;11.88;2.97;;;;;;;25.83;41.21;94205.47;5006518;28;20477;-74
2022/05/29 08:30:54;;;;;;;10.00;3.22;;;;;;;26.78;39.71;94201.63;5009967;28;20037;-76
2022/05/29 08:33:29;;;;;;;18.35;2.92;;;;;;;27.06;38.78;94206.03;5008634;28;20180;-76
2022/05/29 08:36:00;;;;;;;13.40;3.55;;;;;;;27.16;38.51;94203.56;5008355;28;20085;-76
2022/05/29 08:38:26;;;;;;;10.30;3.67;;;;;;;27.04;38.37;94202.97;5024907;28;20029;-76
2022/05/29 08:40:56;;;;;;;15.07;3.70;;;;;;;27.12;37.35;94225.97;4992839;28;20395;-75
2022/05/29 08:43:42;;;;;;;14.98;3.53;;;;;;;26.91;38.64;94211.06;5008793;28;20049;-76
2022/05/29 08:46:22;;;;;;;9.05;3.38;;;;;;;27.02;38.04;94197.19;5008320;28;20525;-76
2022/05/29 08:48:48;;;;;;;14.52;2.95;;;;;;;26.89;38.41;94191.97;5007439;28;20041;-75
2022/05/29 08:51:35;;;;;;;12.68;4.00;;;;;;;26.88;37.99;94190.41;5008261;28;20115;-76
2022/05/29 08:54:14;;;;;;;17.40;4.45;;;;;;;26.88;38.57;94182.41;5009564;28;20033;-75
2022/05/29 08:57:06;;;;;;;11.45;3.78;;;;;;;26.67;38.76;94184.59;5008955;28;20512;-77
2022/05/29 08:59:57;;;;;;;14.40;4.00;;;;;;;26.61;38.95;94181.44;5013458;28;20726;-77
2022/05/29 09:02:46;;;;;;;16.73;3.55;;;;;;;26.27;38.13;94185.63;5009269;28;20125;-79
2022/05/29 09:05:22;;;;;;;17.40;3.90;;;;;;;25.99;37.90;94183.03;5012146;28;20034;-76
2022/05/29 09:07:49;;;;;;;23.67;4.32;;;;;;;26.01;38.26;94164.81;5008832;28;20034;-76
2022/05/29 09:10:17;;;;;;;16.02;3.80;;;;;;;26.08;38.28;94164.22;5008775;28;20081;-77
2022/05/29 09:12:53;;;;;;;20.75;3.50;;;;;;;25.75;38.55;94169.13;5030140;28;20072;-81
2022/05/29 09:15:39;;;;;;;9.55;2.95;;;;;;;25.63;38.31;94165.41;5020036;28;20100;-79
2022/05/29 09:18:22;;;;;;;16.42;4.72;;;;;;;25.45;39.21;94161.50;5003405;28;20060;-81
2022/05/29 09:20:59;;;;;;;14.60;4.40;;;;;;;25.52;39.41;94142.28;5016403;28;20037;-81
2022/05/29 09:23:28;;;;;;;18.40;3.55;;;;;;;25.57;39.16;94161.44;5004394;28;20501;-81
2022/05/29 09:25:55;;;;;;;14.13;3.50;;;;;;;25.41;38.90;94164.09;5019492;28;20045;-82
2022/05/29 09:28:32;;;;;;;11.32;3.65;;;;;;;25.41;38.54;94147.34;5034067;28;20030;-78
2022/05/29 09:31:05;;;;;;;15.68;3.58;;;;;;;25.44;38.59;94141.34;4987487;28;20030;-78
2022/05/29 09:33:31;;;;;;;16.75;3.35;;;;;;;25.46;39.13;94144.41;5016493;28;20045;-80
2022/05/29 09:36:34;;;;;;;23.52;3.80;;;;;;;25.28;39.37;94153.84;5000907;28;20034;-81
2022/05/29 09:39:05;;;;;;;;;;;;;;;25.27;39.76;94141.66;5035730;28;20034;-79
2022/05/29 09:41:44;;;;;;;22.02;3.92;;;;;;;25.19;40.24;94126.59;5037779;28;19921;-79
2022/05/29 09:44:14;;;;;;;13.25;3.72;;;;;;;25.16;40.77;94140.59;5018226;28;20120;-80
2022/05/29 09:46:44;;;;;;;15.98;3.65;;;;;;;25.27;40.31;94128.34;5002041;28;20030;-82
2022/05/29 09:52:04;;;;;;;18.35;3.80;;;;;;;25.14;40.34;94133.72;5003527;28;20064;-82
2022/05/29 09:54:44;;;;;;;16.17;4.07;;;;;;;25.36;40.28;94113.75;5018542;28;20030;-84
2022/05/29 09:57:20;;;;;;;22.50;4.28;;;;;;;25.13;40.16;94131.41;5004882;28;20580;-82
2022/05/29 09:59:46;;;;;;;14.23;4.13;;;;;;;25.02;41.25;94122.34;5033367;28;20123;-83
2022/05/29 10:02:35;;;;;;;15.00;3.95;;;;;;;25.02;41.70;94133.75;4985366;28;20033;-82
2022/05/29 10:05:00;;;;;;;11.93;3.97;;;;;;;25.02;41.75;94093.84;4999976;28;20124;-83
2022/05/29 10:07:31;;;;;;;19.67;4.47;;;;;;;25.18;41.42;94101.09;5015858;28;20172;-82
2022/05/29 10:09:57;;;;;;;22.23;5.82;;;;;;;25.38;41.26;94095.56;5016621;28;20557;-84
2022/05/29 10:12:22;;;;;;;18.10;5.97;;;;;;;25.43;41.51;94097.19;5016025;28;20117;-83
2022/05/29 10:14:47;;;;;;;22.40;6.60;;;;;;;25.51;41.62;94112.22;4999801;28;20038;-82
2022/05/29 10:17:15;;;;;;;16.27;3.70;;;;;;;25.33;41.37;94087.81;5018117;28;20477;-81
2022/05/29 10:19:45;;;;;;;28.10;7.75;;;;;;;25.32;41.67;94088.16;5013603;28;20056;-80
2022/05/29 10:22:22;;;;;;;29.80;5.18;;;;;;;25.40;41.18;94082.69;4981838;28;20065;-83
2022/05/29 10:24:47;;;;;;;17.45;4.22;;;;;;;25.27;41.54;94083.09;5013533;28;20614;-82
2022/05/29 10:27:19;;;;;;;12.88;4.63;;;;;;;25.43;41.85;94102.53;4981853;28;20048;-83
2022/05/29 10:29:45;;;;;;;12.25;3.47;;;;;;;25.56;41.38;94079.25;5014328;28;20056;-83
2022/05/29 10:32:20;;;;;;;23.52;4.30;;;;;;;25.49;41.86;94084.41;4981482;28;20497;-78
2022/05/29 10:34:45;;;;;;;16.70;4.00;;;;;;;25.44;41.27;94075.56;5015473;28;20042;-84
2022/05/29 10:37:37;;;;;;;37.90;6.57;;;;;;;25.03;42.22;94084.75;5014608;28;20088;-82
2022/05/29 10:40:24;;;;;;;19.20;4.88;;;;;;;25.08;42.21;94084.53;5005848;28;20030;-83
2022/05/29 10:42:52;;;;;;;14.93;3.90;;;;;;;25.18;42.68;94090.47;5017854;28;20038;-83
2022/05/29 10:45:22;;;;;;;19.88;4.07;;;;;;;25.12;42.79;94104.03;4998429;28;20049;-84
2022/05/29 10:47:57;;;;;;;21.40;4.05;;;;;;;25.04;43.00;94083.66;5016843;28;20064;-83
2022/05/29 10:51:01;;;;;;;15.63;5.10;;;;;;;24.89;42.92;94110.19;5035263;28;20092;-81
2022/05/29 10:53:59;;;;;;;15.82;7.35;;;;;;;24.96;42.92;94083.78;5018279;28;20030;-80
2022/05/29 10:56:34;;;;;;;16.48;5.07;;;;;;;24.95;43.07;94075.03;5018725;28;20109;-81
2022/05/29 10:59:12;;;;;;;14.07;4.40;;;;;;;24.92;43.62;94062.41;5028134;28;20106;-82
2022/05/29 11:04:37;;;;;;;22.27;4.47;;;;;;;24.48;45.35;94073.00;5017914;28;20044;-83
2022/05/29 11:07:22;;;;;;;13.20;4.25;;;;;;;24.25;45.72;94066.63;5028606;28;20057;-83
2022/05/29 11:10:24;;;;;;;20.48;4.03;;;;;;;24.20;46.04;94053.56;5012814;28;20509;-82
2022/05/29 11:13:13;;;;;;;33.70;5.43;;;;;;;24.39;46.09;94061.72;5012886;28;20116;-83
2022/05/29 11:16:15;;;;;;;22.73;4.20;;;;;;;24.45;46.03;94039.13;5012685;28;20112;-83
2022/05/29 11:18:53;;;;;;;37.08;4.35;;;;;;;24.63;45.96;94041.50;5013710;28;20047;-82
2022/05/29 11:21:45;;;;;;;12.38;4.30;;;;;;;24.70;46.17;94023.06;5002344;23;20120;-81
2022/05/29 11:24:13;;;;;;;22.70;4.37;;;;;;;24.76;44.94;94019.06;5014922;28;20478;-81
2022/05/29 11:27:18;;;;;;;29.23;5.22;;;;;;;24.71;45.63;94022.72;5013266;28;20065;-81
2022/05/29 11:30:06;;;;;;;25.55;5.07;;;;;;;24.79;45.57;94021.81;5021872;28;20034;-82
2022/05/29 11:32:53;;;;;;;25.88;5.05;;;;;;;24.54;46.31;94005.19;5011350;28;20057;-83
2022/05/29 11:35:39;;;;;;;16.40;4.97;;;;;;;24.53;46.29;93993.00;5014886;28;20029;-81
2022/05/29 11:38:31;;;;;;;20.65;4.55;;;;;;;24.65;45.70;93978.13;5014303;28;20041;-82
2022/05/29 11:41:21;;;;;;;14.40;5.45;;;;;;;24.78;45.32;93966.31;4996007;28;20033;-81
2022/05/29 11:43:51;;;;;;;12.63;4.47;;;;;;;24.82;45.66;93972.50;5011304;28;20045;-80
2022/05/29 11:55:10;;;;;;;21.73;4.75;;;;;;;24.53;46.28;93939.84;5093647;23;20062;-81
2022/05/29 11:58:12;;;;;;;13.57;4.93;;;;;;;24.55;45.96;93944.81;5016711;28;20490;-82
2022/05/29 12:00:45;;;;;;;15.60;4.80;;;;;;;24.57;46.53;93937.31;5005309;28;20057;-83
2022/05/29 12:03:33;;;;;;;20.15;4.93;;;;;;;24.54;46.84;93951.25;5001328;28;20096;-83
2022/05/29 12:08:49;;;;;;;19.88;5.22;;;;;;;24.51;47.63;93946.63;5457791;23;20053;-83
2022/05/29 12:11:40;;;;;;;18.15;4.95;;;;;;;24.60;47.33;93939.28;5025127;28;20125;-83
2022/05/29 12:14:24;;;;;;;20.85;5.15;;;;;;;24.65;47.24;93931.03;5023593;28;20492;-83
2022/05/29 12:17:25;;;;;;;20.52;5.68;;;;;;;24.65;46.48;93946.22;5034903;28;20038;-83
2022/05/29 12:20:13;;;;;;;14.88;5.07;;;;;;;24.67;47.48;93917.41;5029524;28;20030;-83
2022/05/29 12:22:41;;;;;;;20.38;5.25;;;;;;;24.79;46.67;93917.34;5058034;28;20061;-83
2022/05/29 12:25:19;;;;;;;19.10;5.15;;;;;;;24.79;47.27;93898.72;5010223;28;20025;-82
2022/05/29 12:27:44;;;;;;;22.60;6.20;;;;;;;24.76;47.30;93907.41;5021647;23;20048;-81
2022/05/29 12:30:18;;;;;;;22.75;5.80;;;;;;;24.91;46.68;93925.25;5028112;28;20041;-82
2022/05/29 12:32:49;;;;;;;27.48;6.47;;;;;;;24.62;47.47;93918.44;5012209;28;20146;-81
2022/05/29 12:35:19;;;;;;;35.35;5.90;;;;;;;24.62;47.67;93920.34;5006503;28;20045;-82
2022/05/29 12:38:16;;;;;;;18.08;5.95;;;;;;;24.66;47.78;93905.22;5007233;28;20036;-81
2022/05/29 12:41:03;;;;;;;17.05;5.68;;;;;;;24.70;47.18;93900.78;5006885;28;20117;-81